Hovedside
METAR-TAF:

METAR-TAF

Lufthavner :

Port Bouet lufthavn

Abidjan, Elfenbenskysten

breddegrad: 05-15N, lengdegrad: 003-56W, høyde over havet: 7 m

Gjeldene værobservasjon

Denne rapporten ble laget for 15 minutter siden, klokken 20:30 UTC
Vind 3 kt fra Vest-sørvest
Temperatur 25°C
Luftfuktighet 94%
Trykk 1013 hPa
Sikt 10 km eller mer
Spredte skyer i en høyde av 1200 ft

METAR: DIAP 132030Z 25003KT 9999 SCT012 25/24 Q1013 NOSIG

Tid: 20:45 (20:45 UTC)

Varsel

Denne rapporten ble laget for 3 timer og 45 minutter siden, klokken 17:00 UTC
Varsel gyldig fra 13. klokken 18 UTC til 14. klokken 24 UTC
Vind 8 kt fra Vest-sørvest
Sikt: 8000 m
Få skyer i en høyde av 1300 ft
Sannsynlighet 30% :
Midlertidig
fra 14. klokken 02 UTC til 14. klokken 08 UTC
Sikt: 2000 m
dis
Sannsynlighet 30% :
Midlertidig
fra 14. klokken 15 UTC til 14. klokken 21 UTC
Brutte skyer i en høyde av 1200 ft

TAF: DIAP 131700Z 1318/1424 24008KT 8000 FEW013 PROB30 TEMPO 1402/1408 2000 BR PROB30 TEMPO 1415/1421 BKN012

Værobservasjoner og værvarsel for over 4000 flyplasser (METAR- og TAF-rapporter).

Tilgjengelige stasjoner er representert av de røde og gule prikkene på kartet.

Hold musepekeren over prikken for å se navnet på stasjonen.

Klikk så for å se værobservasjoner og -varsler.

For å forandre kartet kan du klikke på den grønne knappen med svart kryss for å zoome inn, på den grønne knappen med strek for å zoome ut, eller på de grønne pilene for å se tilstøtende kart.


METAR-TAF: